Time;durP1;ratioP1;P1;durP2;ratioP2;P2;SDS_P1;SDS_P2;PMS_P1;PMS_P2;Temp;Humidity;BMP_temperature;BMP_pressure;BME280_temperature;BME280_humidity;BME280_pressure;Samples;Min_cycle;Max_cycle;Signal;HPM_P1;HPM_P2
2021/08/06 00:01:42;;;;;;;6.10;1.50;;;;;22.44;99103.20;;;;95496;1170;92548;-54
2021/08/06 00:03:44;;;;;;;5.20;1.30;;;;;22.40;99095.00;;;;95557;1173;84564;-50
2021/08/06 00:05:46;;;;;;;6.10;1.40;;;;;22.40;99093.80;;;;95527;1170;77486;-54
2021/08/06 00:07:47;;;;;;;3.70;1.20;;;;;22.40;99090.20;;;;95422;1177;83971;-53
2021/08/06 00:09:49;;;;;;;4.20;1.30;;;;;22.40;99090.80;;;;95584;1170;102199;-55
2021/08/06 00:11:57;;;;;;;5.50;1.40;;;;;22.40;99081.80;;;;95547;1173;93018;-53
2021/08/06 00:13:59;;;;;;;7.20;2.00;;;;;22.40;99085.20;;;;95557;1169;83697;-55
2021/08/06 00:16:00;;;;;;;3.40;1.20;;;;;22.40;99088.40;;;;95541;1173;76150;-57
2021/08/06 00:18:02;;;;;;;4.70;1.70;;;;;22.40;99086.40;;;;95499;1169;83756;-56
2021/08/06 00:20:05;;;;;;;4.10;1.30;;;;;22.30;99088.60;;;;95511;1173;101636;-58
2021/08/06 00:22:06;;;;;;;2.40;1.00;;;;;22.30;99084.20;;;;95539;1174;92151;-59
2021/08/06 00:24:08;;;;;;;3.30;1.40;;;;;22.30;99079.60;;;;95563;1170;84458;-58
2021/08/06 00:26:10;;;;;;;4.90;1.90;;;;;22.30;99083.80;;;;95528;1170;77461;-54
2021/08/06 00:28:12;;;;;;;4.30;1.60;;;;;22.36;99079.00;;;;95598;1173;84834;-54
2021/08/06 00:30:13;;;;;;;3.80;1.30;;;;;22.40;99072.20;;;;95571;1173;101369;-55
2021/08/06 00:32:15;;;;;;;3.30;1.10;;;;;22.40;99072.40;;;;95552;1173;92944;-53
2021/08/06 00:34:16;;;;;;;4.00;1.20;;;;;22.40;99072.60;;;;95560;1173;83943;-53
2021/08/06 00:36:18;;;;;;;5.20;1.30;;;;;22.40;99074.20;;;;95501;1170;76382;-59
2021/08/06 00:38:19;;;;;;;3.10;0.90;;;;;22.32;99068.40;;;;95471;1170;83496;-59
2021/08/06 00:40:22;;;;;;;3.00;1.40;;;;;22.30;99071.00;;;;95494;1169;101875;-54
2021/08/06 00:42:24;;;;;;;5.10;1.30;;;;;22.30;99064.00;;;;95602;1173;92257;-54
2021/08/06 00:44:25;;;;;;;3.90;1.20;;;;;22.30;99058.80;;;;95566;1170;85123;-53
2021/08/06 00:46:27;;;;;;;7.20;1.20;;;;;22.30;99060.80;;;;95549;1169;76373;-55
2021/08/06 00:48:28;;;;;;;5.20;1.10;;;;;22.30;99057.40;;;;95504;1176;83736;-53
2021/08/06 00:50:30;;;;;;;3.80;1.30;;;;;22.30;99050.40;;;;95574;1173;101927;-59
2021/08/06 00:52:31;;;;;;;4.20;1.30;;;;;22.30;99052.40;;;;95525;1169;92958;-58
2021/08/06 00:54:33;;;;;;;4.40;1.60;;;;;22.30;99042.80;;;;95552;1170;85146;-59
2021/08/06 00:56:34;;;;;;;3.90;1.40;;;;;22.30;99039.40;;;;95462;1173;76663;-54
2021/08/06 00:58:39;;;;;;;4.60;1.20;;;;;22.30;99034.40;;;;95581;1170;84697;-53
2021/08/06 01:00:40;;;;;;;5.50;1.50;;;;;22.30;99033.80;;;;95562;1170;101781;-59
2021/08/06 01:02:56;;;;;;;2.90;1.20;;;;;22.30;99030.00;;;;95561;1174;92172;-59
2021/08/06 01:05:17;;;;;;;3.10;1.10;;;;;22.30;99028.00;;;;95579;1170;83994;-57
2021/08/06 01:07:29;;;;;;;3.80;1.20;;;;;22.30;99020.00;;;;95542;1173;76417;-59
2021/08/06 01:09:45;;;;;;;4.90;1.40;;;;;22.30;99013.80;;;;95559;1173;83997;-59
2021/08/06 01:11:50;;;;;;;4.00;1.70;;;;;22.30;99017.80;;;;95580;1170;100518;-54
2021/08/06 01:13:55;;;;;;;3.20;1.30;;;;;22.30;99015.80;;;;95521;1177;93153;-53
2021/08/06 01:15:59;;;;;;;2.60;1.10;;;;;22.30;99014.80;;;;95509;1170;85089;-59
2021/08/06 01:18:01;;;;;;;3.10;1.20;;;;;22.30;99010.80;;;;95547;1170;76872;-58
2021/08/06 01:20:28;;;;;;;2.70;0.90;;;;;22.30;99014.00;;;;95577;1173;84731;-54
2021/08/06 01:22:41;;;;;;;3.40;1.20;;;;;22.30;99005.20;;;;95469;1173;102165;-54
2021/08/06 01:24:43;;;;;;;3.10;1.10;;;;;22.30;98996.00;;;;95561;1173;93735;-54
2021/08/06 01:26:45;;;;;;;3.80;1.30;;;;;22.30;98992.60;;;;95562;1174;85067;-58
2021/08/06 01:28:48;;;;;;;1.70;0.90;;;;;22.30;98988.00;;;;95528;1172;76706;-59
2021/08/06 01:30:49;;;;;;;4.60;1.30;;;;;22.30;98987.00;;;;95579;1170;83880;-54
2021/08/06 01:32:54;;;;;;;3.80;1.10;;;;;22.28;98983.00;;;;95574;1173;101294;-55
2021/08/06 01:34:56;;;;;;;2.80;1.10;;;;;22.30;98974.00;;;;95581;1170;92840;-54
2021/08/06 01:36:58;;;;;;;3.40;1.30;;;;;22.28;98971.20;;;;95533;1170;83975;-59
2021/08/06 01:38:59;;;;;;;3.80;1.30;;;;;22.20;98968.40;;;;95571;1173;76924;-58
2021/08/06 01:41:19;;;;;;;3.40;1.30;;;;;22.20;98964.00;;;;95438;1173;84734;-59
2021/08/06 01:43:32;;;;;;;4.80;1.00;;;;;22.20;98962.60;;;;95533;1170;102589;-58
2021/08/06 01:45:37;;;;;;;4.60;1.10;;;;;22.20;98955.00;;;;95485;1175;92342;-59
2021/08/06 01:47:42;;;;;;;3.80;1.10;;;;;22.20;98962.00;;;;95565;1170;85311;-58
2021/08/06 01:50:01;;;;;;;4.80;1.20;;;;;22.20;98962.60;;;;95563;1173;77626;-58
2021/08/06 01:52:08;;;;;;;3.30;0.90;;;;;22.20;98959.40;;;;95567;1173;84759;-58
2021/08/06 01:54:13;;;;;;;2.40;1.00;;;;;22.20;98953.60;;;;95583;1173;101404;-59
2021/08/06 01:56:18;;;;;;;3.40;0.90;;;;;22.20;98951.40;;;;95457;1175;93039;-59
2021/08/06 01:58:20;;;;;;;2.20;0.90;;;;;22.20;98946.40;;;;95493;1175;83977;-59
2021/08/06 02:00:21;;;;;;;2.50;0.90;;;;;22.20;98941.40;;;;95547;1173;76570;-59
2021/08/06 02:02:22;;;;;;;3.30;1.00;;;;;22.10;98939.60;;;;95533;1173;84686;-59
2021/08/06 02:04:25;;;;;;;2.40;1.10;;;;;22.20;98939.80;;;;95588;1173;102120;-59
2021/08/06 02:06:26;;;;;;;3.70;1.30;;;;;22.20;98943.60;;;;95469;1173;93350;-58
2021/08/06 02:08:27;;;;;;;3.30;1.10;;;;;22.10;98929.40;;;;95498;1175;85372;-59
2021/08/06 02:10:29;;;;;;;3.60;1.60;;;;;22.20;98931.40;;;;95486;1171;76636;-59
2021/08/06 02:12:32;;;;;;;2.40;1.00;;;;;22.20;98926.00;;;;95580;1169;84900;-59
2021/08/06 02:14:33;;;;;;;4.30;1.10;;;;;22.20;98922.60;;;;95603;1170;101546;-58
2021/08/06 02:16:35;;;;;;;3.30;0.90;;;;;22.20;98920.60;;;;95407;1175;92205;-53
2021/08/06 02:18:37;;;;;;;2.90;1.00;;;;;22.20;98917.40;;;;95447;1180;84622;-54
2021/08/06 02:20:38;;;;;;;3.20;1.00;;;;;22.20;98912.00;;;;95344;1172;76176;-53
2021/08/06 02:22:43;;;;;;;2.30;0.80;;;;;22.20;98911.60;;;;95593;1173;84668;-54
2021/08/06 02:24:44;;;;;;;3.10;1.00;;;;;22.20;98910.00;;;;95474;1175;100983;-54
2021/08/06 02:26:46;;;;;;;3.10;0.90;;;;;22.20;98907.20;;;;95433;1175;92312;-54
2021/08/06 02:28:49;;;;;;;3.00;0.90;;;;;22.20;98909.80;;;;95443;1176;85173;-54
2021/08/06 02:30:51;;;;;;;3.00;0.90;;;;;22.20;98903.20;;;;95553;1170;77476;-54
2021/08/06 02:32:53;;;;;;;4.60;1.10;;;;;22.20;98902.40;;;;95570;1173;84614;-53
2021/08/06 02:34:54;;;;;;;2.90;0.90;;;;;22.20;98898.40;;;;95555;1174;101833;-54
2021/08/06 02:36:56;;;;;;;2.60;0.90;;;;;22.20;98890.20;;;;95527;1171;92408;-54
2021/08/06 02:38:59;;;;;;;3.70;0.80;;;;;22.20;98889.00;;;;95543;1173;84877;-54
2021/08/06 02:41:01;;;;;;;5.40;1.20;;;;;22.10;98888.80;;;;95630;1173;76484;-58
2021/08/06 02:43:05;;;;;;;1.80;0.80;;;;;22.20;98881.60;;;;95568;1176;84854;-59
2021/08/06 02:45:07;;;;;;;1.40;0.70;;;;;22.14;98883.40;;;;95555;1170;101613;-58
2021/08/06 02:47:09;;;;;;;1.40;0.70;;;;;22.18;98879.20;;;;95553;1174;93019;-59
2021/08/06 02:49:11;;;;;;;1.60;0.70;;;;;22.10;98878.60;;;;95534;1170;84327;-60
2021/08/06 02:51:12;;;;;;;2.20;0.80;;;;;22.20;98879.20;;;;95513;1173;77582;-53
2021/08/06 02:53:13;;;;;;;1.60;0.70;;;;;22.20;98875.60;;;;95570;1169;84861;-54
2021/08/06 02:55:15;;;;;;;2.70;0.70;;;;;22.18;98876.80;;;;95485;1175;100527;-59
2021/08/06 02:57:17;;;;;;;2.90;0.80;;;;;22.10;98876.20;;;;95557;1173;93023;-59
2021/08/06 02:59:18;;;;;;;1.90;0.90;;;;;22.10;98868.80;;;;95570;1170;84956;-59
2021/08/06 03:01:20;;;;;;;4.00;0.90;;;;;22.10;98869.60;;;;95517;1170;77521;-54
2021/08/06 03:03:21;;;;;;;3.10;0.90;;;;;22.10;98870.20;;;;95590;1171;85301;-53
2021/08/06 03:05:23;;;;;;;3.20;0.80;;;;;22.10;98866.80;;;;95567;1174;101520;-59
2021/08/06 03:07:24;;;;;;;2.00;0.70;;;;;22.10;98865.80;;;;95578;1173;93017;-61
2021/08/06 03:09:26;;;;;;;2.60;0.90;;;;;22.10;98867.20;;;;95611;1173;84061;-59
2021/08/06 03:11:27;;;;;;;1.30;0.60;;;;;22.10;98865.00;;;;95559;1173;78033;-54
2021/08/06 03:13:29;;;;;;;2.30;0.70;;;;;22.10;98858.80;;;;95555;1173;84715;-54
2021/08/06 03:15:30;;;;;;;2.30;0.60;;;;;22.10;98859.00;;;;95571;1170;100443;-54
2021/08/06 03:17:32;;;;;;;2.10;0.50;;;;;22.20;98857.00;;;;95532;1170;93031;-53
2021/08/06 03:19:33;;;;;;;2.30;0.60;;;;;22.10;98845.60;;;;95584;1174;84026;-55
2021/08/06 03:21:35;;;;;;;1.20;0.70;;;;;22.18;98853.80;;;;95522;1174;77389;-59
2021/08/06 03:23:36;;;;;;;4.60;1.00;;;;;22.10;98847.80;;;;95614;1173;83944;-60
2021/08/06 03:25:38;;;;;;;2.70;0.70;;;;;22.14;98839.40;;;;95557;1174;101804;-58
2021/08/06 03:27:39;;;;;;;1.20;0.50;;;;;22.00;98836.60;;;;95591;1173;92368;-59
2021/08/06 03:29:41;;;;;;;2.90;0.80;;;;;22.00;98834.20;;;;95528;1173;85038;-59
2021/08/06 03:31:42;;;;;;;3.70;0.60;;;;;22.00;98839.00;;;;95543;1173;77471;-54
2021/08/06 03:33:43;;;;;;;4.20;0.70;;;;;22.00;98835.00;;;;95596;1173;83946;-54
2021/08/06 03:35:45;;;;;;;1.70;0.60;;;;;22.10;98834.00;;;;95591;1173;102004;-54
2021/08/06 03:37:46;;;;;;;3.00;0.70;;;;;22.10;98830.40;;;;95582;1173;92442;-54
2021/08/06 03:39:48;;;;;;;3.60;0.70;;;;;22.10;98837.00;;;;95560;1174;84217;-54
2021/08/06 03:41:49;;;;;;;0.80;0.30;;;;;22.10;98836.00;;;;95599;1173;76170;-58
2021/08/06 03:43:51;;;;;;;1.80;0.60;;;;;22.10;98842.20;;;;95578;1169;84883;-58
2021/08/06 03:45:52;;;;;;;2.80;0.70;;;;;22.10;98839.20;;;;95590;1169;101857;-53
2021/08/06 03:47:54;;;;;;;2.30;0.70;;;;;22.12;98837.00;;;;95572;1174;92325;-53
2021/08/06 03:49:55;;;;;;;1.70;0.70;;;;;22.20;98835.40;;;;95594;1174;84172;-54
2021/08/06 03:51:57;;;;;;;2.30;0.60;;;;;22.20;98831.80;;;;95570;1169;77462;-55
2021/08/06 03:53:58;;;;;;;2.70;0.50;;;;;22.16;98828.20;;;;95629;1173;84914;-53
2021/08/06 03:56:00;;;;;;;3.30;0.70;;;;;22.10;98822.40;;;;95551;1173;100902;-53
2021/08/06 03:58:02;;;;;;;2.10;0.50;;;;;22.10;98819.80;;;;95598;1169;92705;-54
2021/08/06 04:00:05;;;;;;;2.60;0.80;;;;;22.16;98819.80;;;;95545;1169;84188;-58
2021/08/06 04:02:06;;;;;;;1.90;0.60;;;;;22.06;98823.60;;;;95591;1173;76345;-59
2021/08/06 04:04:08;;;;;;;1.60;0.60;;;;;22.10;98822.60;;;;95569;1173;84803;-59
2021/08/06 04:06:09;;;;;;;3.30;0.80;;;;;22.06;98817.60;;;;95569;1173;100968;-59
2021/08/06 04:08:11;;;;;;;2.10;0.60;;;;;22.10;98817.80;;;;95593;1173;93690;-58
2021/08/06 04:10:14;;;;;;;2.20;0.60;;;;;22.10;98811.60;;;;95598;1173;84845;-58
2021/08/06 04:12:16;;;;;;;1.30;0.50;;;;;22.10;98820.00;;;;95582;1169;76611;-58
2021/08/06 04:14:17;;;;;;;1.80;0.60;;;;;22.10;98821.80;;;;95599;1173;84847;-61
2021/08/06 04:16:19;;;;;;;1.30;0.60;;;;;22.10;98818.60;;;;95580;1170;100826;-58
2021/08/06 04:18:20;;;;;;;1.40;0.50;;;;;22.10;98814.40;;;;95559;1173;93035;-59
2021/08/06 04:20:22;;;;;;;3.40;0.80;;;;;22.10;98810.40;;;;95607;1173;84076;-59
2021/08/06 04:22:24;;;;;;;3.30;0.60;;;;;22.06;98813.60;;;;95575;1169;77512;-58
2021/08/06 04:24:26;;;;;;;1.30;0.50;;;;;22.10;98815.80;;;;95616;1173;84861;-58
2021/08/06 04:26:28;;;;;;;2.60;0.60;;;;;22.16;98812.40;;;;95511;1172;101626;-54
2021/08/06 04:28:29;;;;;;;1.90;0.50;;;;;22.10;98808.00;;;;95599;1173;92987;-54
2021/08/06 04:30:31;;;;;;;1.70;0.50;;;;;22.10;98808.80;;;;95580;1169;85006;-53
2021/08/06 04:32:32;;;;;;;1.50;0.50;;;;;22.10;98809.20;;;;95545;1170;77331;-54
2021/08/06 04:34:33;;;;;;;4.50;0.80;;;;;22.10;98806.20;;;;95629;1173;83859;-54
2021/08/06 04:36:35;;;;;;;5.10;0.50;;;;;22.10;98795.60;;;;95529;1170;101818;-54
2021/08/06 04:38:37;;;;;;;1.00;0.50;;;;;22.10;98797.40;;;;95577;1170;91990;-52
2021/08/06 04:40:38;;;;;;;3.20;0.40;;;;;22.10;98799.60;;;;95543;1173;84347;-53
2021/08/06 04:42:39;;;;;;;1.10;0.40;;;;;22.10;98798.20;;;;95611;1173;77552;-53
2021/08/06 04:44:41;;;;;;;1.80;0.60;;;;;22.04;98792.60;;;;95611;1169;84013;-53
2021/08/06 04:46:42;;;;;;;1.80;0.70;;;;;22.00;98794.00;;;;95610;1170;101714;-57
2021/08/06 04:48:44;;;;;;;0.80;0.40;;;;;22.08;98799.40;;;;95610;1170;93103;-58
2021/08/06 04:50:46;;;;;;;1.40;0.60;;;;;22.10;98793.20;;;;95586;1173;85121;-54
2021/08/06 04:52:47;;;;;;;2.00;0.40;;;;;22.00;98796.60;;;;95597;1173;77389;-54
2021/08/06 04:54:48;;;;;;;1.40;0.60;;;;;22.10;98796.40;;;;95605;1173;84878;-57
2021/08/06 04:56:50;;;;;;;1.40;0.40;;;;;22.10;98785.00;;;;95566;1170;101686;-54
2021/08/06 04:58:51;;;;;;;2.30;0.70;;;;;22.10;98786.60;;;;95563;1170;93222;-55
2021/08/06 05:00:53;;;;;;;2.30;0.60;;;;;22.10;98777.60;;;;95557;1170;83843;-52
2021/08/06 05:02:54;;;;;;;1.80;0.50;;;;;22.10;98777.00;;;;95507;1173;77600;-51
2021/08/06 05:04:56;;;;;;;1.20;0.40;;;;;22.10;98782.80;;;;95592;1172;83830;-53
2021/08/06 05:06:58;;;;;;;1.60;0.40;;;;;22.10;98777.00;;;;95600;1173;101376;-53
2021/08/06 05:08:59;;;;;;;2.40;0.60;;;;;22.10;98778.00;;;;95611;1169;93266;-58
2021/08/06 05:11:01;;;;;;;0.90;0.40;;;;;22.10;98775.00;;;;95546;1173;84885;-54
2021/08/06 05:13:03;;;;;;;0.90;0.40;;;;;22.10;98773.60;;;;95572;1170;77400;-54
2021/08/06 05:15:05;;;;;;;0.70;0.20;;;;;22.08;98772.80;;;;95532;1170;83560;-54
2021/08/06 05:17:09;;;;;;;1.20;0.50;;;;;22.10;98772.80;;;;95607;1173;101232;-54
2021/08/06 05:19:11;;;;;;;1.10;0.50;;;;;22.10;98775.20;;;;95584;1170;93234;-54
2021/08/06 05:21:12;;;;;;;2.20;0.40;;;;;22.10;98771.20;;;;95509;1173;84000;-59
2021/08/06 05:23:14;;;;;;;0.90;0.40;;;;;22.00;98778.60;;;;95542;1169;76177;-59
2021/08/06 05:25:15;;;;;;;2.20;0.60;;;;;22.10;98783.80;;;;95624;1169;83805;-54
2021/08/06 05:27:17;;;;;;;1.30;0.50;;;;;22.10;98781.40;;;;95575;1174;101390;-54
2021/08/06 05:29:19;;;;;;;0.80;0.30;;;;;22.00;98782.80;;;;95615;1169;93147;-53
2021/08/06 05:31:20;;;;;;;0.80;0.30;;;;;22.00;98790.40;;;;95562;1173;85079;-54
2021/08/06 05:33:22;;;;;;;1.80;0.60;;;;;22.00;98788.00;;;;95548;1174;76612;-53
2021/08/06 05:35:23;;;;;;;1.60;0.50;;;;;22.10;98785.00;;;;95625;1169;83969;-54
2021/08/06 05:37:25;;;;;;;1.50;0.50;;;;;22.10;98785.40;;;;95541;1172;102068;-53
2021/08/06 05:39:26;;;;;;;1.50;0.60;;;;;22.02;98787.60;;;;95638;1173;92404;-53
2021/08/06 05:41:28;;;;;;;3.10;0.50;;;;;22.10;98783.40;;;;95639;1173;84455;-53
2021/08/06 05:43:29;;;;;;;1.10;0.40;;;;;22.10;98778.80;;;;95541;1173;77315;-54
2021/08/06 05:45:31;;;;;;;0.80;0.30;;;;;22.00;98782.20;;;;95613;1173;84703;-58
2021/08/06 05:47:51;;;;;;;0.80;0.40;;;;;22.10;98781.60;;;;95539;1173;102187;-57
2021/08/06 05:49:52;;;;;;;0.90;0.40;;;;;22.00;98779.40;;;;95554;1172;92484;-59
2021/08/06 05:51:53;;;;;;;3.00;0.40;;;;;22.00;98780.00;;;;95562;1173;85102;-61
2021/08/06 05:53:55;;;;;;;1.60;0.50;;;;;22.00;98778.20;;;;95611;1169;77546;-58
2021/08/06 05:55:56;;;;;;;1.00;0.30;;;;;21.90;98779.00;;;;95565;1170;83853;-54
2021/08/06 05:57:58;;;;;;;0.40;0.30;;;;;22.00;98771.20;;;;95613;1169;102144;-54
2021/08/06 05:59:59;;;;;;;0.70;0.40;;;;;22.00;98773.20;;;;95612;1170;92920;-55
2021/08/06 06:02:02;;;;;;;0.70;0.30;;;;;21.90;98775.60;;;;95608;1173;84891;-54
2021/08/06 06:04:03;;;;;;;0.70;0.30;;;;;22.00;98771.80;;;;95542;1173;76403;-55
2021/08/06 06:06:05;;;;;;;0.80;0.40;;;;;22.00;98775.40;;;;95578;1172;84388;-58
2021/08/06 06:08:06;;;;;;;1.10;0.40;;;;;21.86;98773.80;;;;95565;1171;101599;-57
2021/08/06 06:10:08;;;;;;;2.50;0.40;;;;;22.00;98771.20;;;;95604;1173;92386;-54
2021/08/06 06:12:10;;;;;;;3.80;0.30;;;;;22.10;98769.60;;;;95445;1175;84414;-54
2021/08/06 06:14:14;;;;;;;1.90;0.40;;;;;22.00;98768.80;;;;95571;1170;77413;-54
2021/08/06 06:16:16;;;;;;;1.20;0.50;;;;;22.00;98768.00;;;;95576;1174;84028;-58
2021/08/06 06:18:17;;;;;;;1.00;0.30;;;;;22.10;98767.20;;;;95602;1175;100960;-58
2021/08/06 06:20:19;;;;;;;1.40;0.30;;;;;22.10;98764.80;;;;95547;1173;93281;-58
2021/08/06 06:22:20;;;;;;;1.10;0.40;;;;;22.10;98766.80;;;;95557;1173;85702;-59
2021/08/06 06:24:22;;;;;;;0.60;0.30;;;;;22.00;98770.20;;;;95605;1173;77606;-59
2021/08/06 06:26:23;;;;;;;2.20;0.40;;;;;22.00;98768.80;;;;95623;1173;84836;-59
2021/08/06 06:28:25;;;;;;;2.80;0.40;;;;;22.00;98770.80;;;;95615;1173;100747;-59
2021/08/06 06:30:27;;;;;;;0.40;0.30;;;;;22.10;98767.40;;;;95594;1173;92308;-55
2021/08/06 06:32:28;;;;;;;0.90;0.30;;;;;22.00;98772.80;;;;95579;1173;84838;-53
2021/08/06 06:34:30;;;;;;;0.80;0.30;;;;;22.00;98767.80;;;;95589;1169;76614;-53
2021/08/06 06:36:31;;;;;;;1.10;0.40;;;;;22.10;98769.20;;;;95559;1172;85360;-54
2021/08/06 06:38:33;;;;;;;1.10;0.40;;;;;22.10;98775.20;;;;95614;1173;100443;-54
2021/08/06 06:40:34;;;;;;;1.00;0.40;;;;;22.04;98772.00;;;;95565;1173;93229;-54
2021/08/06 06:42:36;;;;;;;3.20;0.70;;;;;22.08;98771.60;;;;95594;1169;84893;-54
2021/08/06 06:44:37;;;;;;;1.20;0.40;;;;;22.00;98769.00;;;;95607;1173;76232;-54
2021/08/06 06:46:39;;;;;;;0.70;0.30;;;;;22.10;98775.00;;;;95629;1173;84462;-59
2021/08/06 06:48:40;;;;;;;0.60;0.30;;;;;22.00;98775.00;;;;95607;1173;102056;-57
2021/08/06 06:50:42;;;;;;;2.80;0.40;;;;;22.00;98773.20;;;;95573;1173;92997;-58
2021/08/06 06:52:44;;;;;;;2.30;0.40;;;;;22.10;98776.00;;;;95584;1170;83951;-58
2021/08/06 06:54:45;;;;;;;0.90;0.30;;;;;22.10;98771.20;;;;95603;1174;76839;-58
2021/08/06 06:56:46;;;;;;;0.80;0.40;;;;;22.10;98773.20;;;;95535;1176;84900;-55
2021/08/06 06:58:48;;;;;;;0.90;0.20;;;;;22.10;98779.00;;;;95590;1173;100513;-54
2021/08/06 07:00:50;;;;;;;2.00;0.30;;;;;22.10;98779.20;;;;95560;1172;93251;-59
2021/08/06 07:02:51;;;;;;;0.90;0.20;;;;;22.10;98776.80;;;;95563;1176;84212;-59
2021/08/06 07:04:53;;;;;;;2.20;0.40;;;;;22.00;98776.60;;;;95588;1173;77367;-59
2021/08/06 07:06:54;;;;;;;0.70;0.40;;;;;22.06;98780.20;;;;95532;1176;83573;-59
2021/08/06 07:08:56;;;;;;;2.70;0.30;;;;;22.10;98781.20;;;;95597;1176;100422;-59
2021/08/06 07:10:57;;;;;;;0.90;0.40;;;;;21.90;98789.00;;;;95581;1172;93203;-54
2021/08/06 07:13:01;;;;;;;1.00;0.30;;;;;22.00;98783.00;;;;95558;1174;84118;-54
2021/08/06 07:15:04;;;;;;;1.40;0.30;;;;;21.90;98791.00;;;;95595;1174;76644;-55
2021/08/06 07:17:06;;;;;;;1.30;0.40;;;;;22.02;98785.80;;;;95531;1173;83687;-53
2021/08/06 07:19:07;;;;;;;2.20;0.30;;;;;22.00;98789.40;;;;95566;1172;101808;-54
2021/08/06 07:21:12;;;;;;;1.80;0.30;;;;;22.00;98796.80;;;;95564;1174;93119;-54
2021/08/06 07:23:15;;;;;;;1.50;0.40;;;;;22.06;98786.20;;;;95475;1176;85820;-54
2021/08/06 07:25:16;;;;;;;0.80;0.20;;;;;22.02;98792.60;;;;95514;1176;76589;-58
2021/08/06 07:27:18;;;;;;;2.00;0.30;;;;;22.10;98791.00;;;;95486;1172;83988;-59
2021/08/06 07:29:20;;;;;;;1.10;0.40;;;;;22.10;98787.40;;;;95515;1176;102238;-60
2021/08/06 07:31:22;;;;;;;0.80;0.40;;;;;22.14;98788.20;;;;95467;1174;93272;-54
2021/08/06 07:33:23;;;;;;;0.50;0.30;;;;;22.20;98793.00;;;;95477;1172;85097;-54
2021/08/06 07:35:30;;;;;;;0.80;0.30;;;;;22.20;98785.20;;;;95525;1172;76171;-58
2021/08/06 07:37:32;;;;;;;1.10;0.40;;;;;22.24;98783.60;;;;95530;1172;84607;-59
2021/08/06 07:39:33;;;;;;;1.00;0.30;;;;;22.20;98787.00;;;;95545;1172;101694;-59
2021/08/06 07:41:38;;;;;;;0.60;0.30;;;;;22.26;98786.40;;;;95486;1176;93028;-58
2021/08/06 07:43:39;;;;;;;2.10;0.40;;;;;22.20;98789.60;;;;95479;1172;85368;-59
2021/08/06 07:45:46;;;;;;;1.00;0.30;;;;;22.20;98785.60;;;;95550;1176;76330;-59
2021/08/06 07:47:47;;;;;;;1.50;0.20;;;;;22.20;98789.40;;;;95547;1174;83660;-58
2021/08/06 07:49:49;;;;;;;0.30;0.20;;;;;22.10;98792.40;;;;95548;1176;102160;-59
2021/08/06 07:51:50;;;;;;;1.20;0.30;;;;;22.20;98792.00;;;;95379;1175;92400;-59
2021/08/06 07:53:52;;;;;;;0.90;0.30;;;;;22.10;98795.00;;;;95499;1173;83991;-59
2021/08/06 07:55:53;;;;;;;0.40;0.30;;;;;22.10;98793.00;;;;95494;1172;76967;-54
2021/08/06 07:57:55;;;;;;;1.00;0.20;;;;;22.10;98793.00;;;;95557;1170;84658;-55
2021/08/06 07:59:56;;;;;;;0.80;0.20;;;;;22.10;98794.20;;;;95578;1176;102137;-54
2021/08/06 08:02:00;;;;;;;0.50;0.30;;;;;22.20;98794.80;;;;95533;1174;92732;-58
2021/08/06 08:04:02;;;;;;;0.90;0.30;;;;;22.30;98797.80;;;;95508;1173;84857;-59
2021/08/06 08:06:03;;;;;;;1.30;0.20;;;;;22.12;98793.40;;;;95439;1173;76395;-54
2021/08/06 08:08:05;;;;;;;0.90;0.40;;;;;22.10;98795.20;;;;95522;1172;83987;-53
2021/08/06 08:10:07;;;;;;;1.20;0.30;;;;;22.10;98788.40;;;;95554;1174;101864;-55
2021/08/06 08:12:09;;;;;;;1.00;0.30;;;;;22.10;98790.40;;;;95544;1174;92157;-54
2021/08/06 08:14:11;;;;;;;0.50;0.20;;;;;22.18;98788.40;;;;95562;1170;84197;-54
2021/08/06 08:16:13;;;;;;;1.10;0.30;;;;;22.14;98791.60;;;;95556;1173;77544;-54
2021/08/06 08:18:14;;;;;;;0.40;0.20;;;;;22.20;98794.00;;;;95476;1176;84828;-54
2021/08/06 08:20:16;;;;;;;0.30;0.30;;;;;22.10;98788.60;;;;95483;1172;100509;-54
2021/08/06 08:22:17;;;;;;;1.30;0.30;;;;;22.22;98793.00;;;;95494;1173;93090;-54
2021/08/06 08:24:19;;;;;;;4.70;0.30;;;;;22.30;98792.60;;;;95494;1173;84463;-54
2021/08/06 08:26:21;;;;;;;2.00;0.30;;;;;22.32;98792.20;;;;95487;1173;77500;-52
2021/08/06 08:28:23;;;;;;;3.20;0.50;;;;;22.40;98792.00;;;;95520;1174;84842;-56
2021/08/06 08:30:24;;;;;;;0.80;0.30;;;;;22.40;98794.80;;;;95599;1173;100540;-62
2021/08/06 08:32:26;;;;;;;1.30;0.50;;;;;22.50;98793.60;;;;95432;1175;93072;-57
2021/08/06 08:34:27;;;;;;;2.10;0.70;;;;;22.50;98791.60;;;;95507;1177;84018;-57
2021/08/06 08:36:29;;;;;;;4.30;0.70;;;;;22.50;98793.80;;;;95549;1173;76947;-61
2021/08/06 08:39:05;;;;;;;3.90;0.60;;;;;22.50;98790.80;;;;95571;1172;84637;-57
2021/08/06 08:41:06;;;;;;;2.30;0.60;;;;;22.50;98795.00;;;;95592;1173;100524;-66
2021/08/06 08:43:08;;;;;;;2.00;0.50;;;;;22.54;98793.40;;;;95569;1173;92286;-60
2021/08/06 08:45:11;;;;;;;5.50;0.80;;;;;22.60;98795.00;;;;95538;1173;84198;-58
2021/08/06 08:47:13;;;;;;;2.60;0.60;;;;;22.60;98792.60;;;;95523;1173;76450;-56
2021/08/06 08:49:15;;;;;;;5.50;1.20;;;;;22.60;98791.40;;;;95521;1174;84011;-55
2021/08/06 08:51:17;;;;;;;5.50;0.80;;;;;22.70;98788.40;;;;95382;1176;101417;-65
2021/08/06 08:53:18;;;;;;;5.70;0.90;;;;;22.78;98801.20;;;;95464;1169;92422;-65
2021/08/06 08:55:20;;;;;;;5.90;0.90;;;;;22.80;98800.00;;;;95527;1172;84843;-51
2021/08/06 08:57:22;;;;;;;8.10;1.40;;;;;22.80;98801.80;;;;95535;1172;76641;-51
2021/08/06 08:59:24;;;;;;;6.40;1.40;;;;;22.80;98798.80;;;;95518;1172;84883;-56
2021/08/06 09:01:25;;;;;;;8.90;1.50;;;;;22.80;98803.00;;;;95501;1173;102414;-57
2021/08/06 09:03:46;;;;;;;8.00;1.90;;;;;22.80;98801.00;;;;95400;1171;92301;-60
2021/08/06 09:05:51;;;;;;;7.50;1.30;;;;;22.80;98798.00;;;;95504;1173;83964;-55
2021/08/06 09:07:53;;;;;;;10.70;1.90;;;;;22.80;98798.60;;;;95517;1174;77511;-70
2021/08/06 09:10:16;;;;;;;8.70;1.40;;;;;22.88;98800.40;;;;95525;1172;83924;-53
2021/08/06 09:12:19;;;;;;;9.60;2.00;;;;;23.00;98798.40;;;;95478;1176;102413;-58
2021/08/06 09:14:25;;;;;;;6.10;1.80;;;;;23.00;98799.40;;;;95497;1172;92461;-53
2021/08/06 09:16:26;;;;;;;6.60;1.30;;;;;23.00;98798.20;;;;95475;1176;83898;-51
2021/08/06 09:18:37;;;;;;;8.10;1.40;;;;;23.00;98803.60;;;;95547;1174;76490;-53
2021/08/06 09:20:39;;;;;;;6.40;1.50;;;;;23.00;98801.00;;;;95503;1174;83742;-55
2021/08/06 09:22:41;;;;;;;9.70;1.60;;;;;23.00;98798.80;;;;95498;1173;101251;-55
2021/08/06 09:25:07;;;;;;;5.70;1.40;;;;;22.98;98798.60;;;;95548;1173;92456;-57
2021/08/06 09:27:15;;;;;;;3.30;1.00;;;;;22.90;98801.80;;;;95514;1173;84839;-57
2021/08/06 09:29:21;;;;;;;5.60;1.10;;;;;22.82;98802.80;;;;95500;1173;76492;-55
2021/08/06 09:31:23;;;;;;;10.50;1.90;;;;;22.80;98808.60;;;;95472;1173;83801;-53
2021/08/06 09:33:31;;;;;;;9.20;2.10;;;;;22.80;98812.20;;;;95534;1173;103014;-52
2021/08/06 09:35:34;;;;;;;8.30;1.60;;;;;22.80;98806.00;;;;95518;1177;92407;-52
2021/08/06 09:37:35;;;;;;;8.20;1.70;;;;;22.80;98813.20;;;;95465;1173;84024;-52
2021/08/06 09:39:44;;;;;;;9.50;1.70;;;;;22.80;98815.20;;;;95433;1176;76613;-55
2021/08/06 09:41:46;;;;;;;10.40;2.00;;;;;22.80;98817.60;;;;95536;1173;84174;-55
2021/08/06 09:43:51;;;;;;;11.60;2.20;;;;;22.76;98818.60;;;;95508;1173;102297;-55
2021/08/06 09:45:53;;;;;;;8.60;1.90;;;;;22.72;98821.20;;;;95419;1176;93078;-56
2021/08/06 09:47:55;;;;;;;10.30;2.10;;;;;22.74;98822.60;;;;95577;1173;84200;-53
2021/08/06 09:49:58;;;;;;;7.70;1.80;;;;;22.90;98821.60;;;;95584;1173;76208;-51
2021/08/06 09:52:00;;;;;;;14.70;1.90;;;;;22.90;98821.60;;;;95577;1174;84676;-52
2021/08/06 09:54:07;;;;;;;9.10;1.90;;;;;22.90;98821.40;;;;95574;1177;102779;-53
2021/08/06 09:56:15;;;;;;;10.20;1.60;;;;;22.90;98823.00;;;;95473;1177;92104;-55
2021/08/06 09:58:22;;;;;;;11.40;2.20;;;;;22.90;98822.00;;;;95522;1173;84007;-58
2021/08/06 10:00:24;;;;;;;10.70;2.10;;;;;22.90;98821.80;;;;95517;1176;77157;-51
2021/08/06 10:02:27;;;;;;;8.70;2.00;;;;;22.90;98825.20;;;;95536;1176;83500;-51
2021/08/06 10:04:28;;;;;;;8.10;1.80;;;;;22.90;98829.00;;;;95576;1174;101921;-51
2021/08/06 10:06:30;;;;;;;8.30;1.90;;;;;22.90;98827.00;;;;95368;1177;93928;-50
2021/08/06 10:08:32;;;;;;;7.20;1.30;;;;;22.90;98831.40;;;;95467;1174;83724;-54
2021/08/06 10:10:38;;;;;;;8.60;1.40;;;;;22.90;98830.00;;;;95460;1174;76663;-53
2021/08/06 10:12:40;;;;;;;9.50;2.20;;;;;22.90;98829.20;;;;95376;1179;84871;-56
2021/08/06 10:14:41;;;;;;;11.40;2.10;;;;;22.90;98831.60;;;;95494;1176;102719;-55